Flight Track Log - Related Links

Times and Time Zones

All times are in EDT time to prevent confusion due to time zone crossing. See the EJA951 flight status page for this flight to view local times or setup timezone preferences in your user account.

Time Position Orientation Groundspeed Altitude Reporting Facility
EDT Latitude Longitude Course Direction KTS MPH feet Rate Location/Type
Thu 11:16:47 AM 39.4833 -104.8500 169° South 242 278 10,700  Level Denver TRACON
Thu 11:17:38 AM 39.4306 -104.8364 169° South 278 320 12,000 1,821 Climbing Denver Center
Thu 11:18:39 AM 39.4119 -104.7153 101° East 341 392 14,100 1,951 Climbing Denver Center
Thu 11:19:41 AM 39.4625 -104.6014 60° Northeast 369 425 16,000 1,790 Climbing Denver Center
Thu 11:20:43 AM 39.5267 -104.4753 57° Northeast 400 460 17,800 1,805 Climbing Denver Center
Thu 11:21:44 AM 39.6169 -104.3861 37° Northeast 410 472 19,700 1,632 Climbing Denver Center
Thu 11:22:48 AM 39.6981 -104.2892 43° Northeast 425 489 21,200 2,081 Climbing Denver Center
Thu 11:23:48 AM 39.7625 -104.1114 65° Northeast 449 517 24,000 2,274 Climbing Denver Center
Thu 11:24:52 AM 39.8131 -103.9539 67° East 469 540 25,900 1,776 Climbing Denver Center
Thu 11:25:53 AM 39.8656 -103.7914 67° East 484 557 27,700 1,872 Climbing Denver Center
Thu 11:26:57 AM 39.8975 -103.6139 77° East 501 577 29,800 2,177 Climbing Denver Center
Thu 11:27:57 AM 39.9189 -103.4339 81° East 505 581 32,200 1,587 Climbing Denver Center
Thu 11:28:58 AM 39.9392 -103.2497 82° East 514 592 33,000 1,488 Climbing Denver Center
Thu 11:30:02 AM 39.9642 -103.0186 82° East 537 618 35,300 1,776 Climbing Denver Center
Thu 11:31:03 AM 39.9769 -102.8283 85° East 530 610 36,700 816 Climbing Denver Center
Thu 11:32:07 AM 39.9894 -102.6322 85° East 540 621 37,000 143 Climbing Denver Center
Thu 11:33:09 AM 40.0014 -102.4028 86° East 562 647 37,000  Level Denver Center
Thu 11:34:09 AM 40.0133 -102.2061 85° East 567 652 37,000  Level Denver Center
Thu 11:35:13 AM 40.0250 -102.0092 86° East 568 654 37,000  Level Denver Center
Thu 11:36:13 AM 40.0367 -101.7819 86° East 567 652 37,000 290 Level Denver Center
Thu 11:37:17 AM 40.0442 -101.5872 87° East 565 650 37,600 816 Climbing Denver Center
Thu 11:38:18 AM 40.0553 -101.3606 86° East 564 649 38,700 1,033 Climbing Denver Center
Thu 11:39:19 AM 40.0647 -101.1658 86° East 564 649 39,700 1,008 Climbing Denver Center
Thu 11:40:23 AM 40.0747 -100.9428 87° East 560 644 40,800 624 Climbing Denver Center
Thu 11:41:24 AM 40.0831 -100.7511 87° East 559 643 41,000 96 Climbing Denver Center
Thu 11:42:28 AM 40.0919 -100.5244 87° East 560 644 41,000  Level Denver Center
Thu 11:43:28 AM 40.0992 -100.3247 87° East 571 657 41,000  Level Denver Center
Thu 11:44:32 AM 40.1078 -100.0939 87° East 572 658 41,000  Level Denver Center
Thu 11:45:33 AM 40.1142 -99.8958 88° East 576 663 41,000  Level Denver Center
Thu 11:46:35 AM 40.1222 -99.6469 87° East 576 663 41,000  Level Denver Center
Thu 11:47:36 AM 40.1294 -99.4400 87° East 573 659 41,000  Level Denver Center
Thu 11:48:40 AM 40.1356 -99.2314 88° East 574 661 41,000  Level Denver Center
Thu 11:49:41 AM 40.1414 -99.0256 88° East 573 659 41,000  Level Denver Center
Thu 11:50:37 AM 40.1469 -98.8183 88° East 573 659 41,000  Level Minneapolis Center
Thu 11:51:39 AM 40.1517 -98.6119 88° East 574 661 41,000  Level Minneapolis Center
Thu 11:52:41 AM 40.1561 -98.4022 88° East 574 661 41,000  Level Minneapolis Center
Thu 11:53:43 AM 40.1603 -98.1950 88° East 575 662 41,000  Level Minneapolis Center
Thu 11:54:45 AM 40.1653 -97.9425 88° East 576 663 41,000  Level Minneapolis Center
Thu 11:55:47 AM 40.1683 -97.7331 89° East 576 663 41,000  Level Minneapolis Center
Thu 11:56:49 AM 40.1711 -97.5222 89° East 580 667 41,000  Level Minneapolis Center
Thu 11:57:51 AM 40.1742 -97.3125 89° East 580 667 41,000  Level Minneapolis Center
Thu 11:58:53 AM 40.1767 -97.0775 89° East 581 669 41,000  Level Minneapolis Center
Thu 11:59:55 AM 40.1783 -96.8683 89° East 581 669 41,000  Level Minneapolis Center
Thu 12:00:57 PM 40.1806 -96.6586 89° East 581 669 41,000  Level Minneapolis Center
Thu 12:01:58 PM 40.1817 -96.4481 90° East 581 669 41,000  Level Minneapolis Center
Thu 12:03:00 PM 40.1822 -96.2389 90° East 581 669 41,000  Level Minneapolis Center
Thu 12:04:02 PM 40.1828 -96.0300 90° East 580 667 41,000  Level Minneapolis Center
Thu 12:05:04 PM 40.1825 -95.7756 90° East 581 669 41,000  Level Minneapolis Center
Thu 12:06:06 PM 40.1828 -95.5656 90° East 581 669 41,000  Level Minneapolis Center
Thu 12:07:08 PM 40.1811 -95.3553 91° East 581 669 41,000  Level Minneapolis Center
Thu 12:08:10 PM 40.1800 -95.1433 90° East 581 669 41,000  Level Minneapolis Center
Thu 12:09:11 PM 40.1772 -94.9336 91° East 582 670 41,000  Level Minneapolis Center
Thu 12:10:13 PM 40.1764 -94.7231 90° East 582 670 41,000  Level Minneapolis Center
Thu 12:11:25 PM 40.1722 -94.4486 91° East 579 666 41,000  Level Kansas City Center
Thu 12:12:27 PM 40.1692 -94.2475 91° East 579 666 41,000  Level Kansas City Center
Thu 12:13:30 PM 40.1639 -94.0053 92° East 580 667 41,000  Level Kansas City Center
Thu 12:14:32 PM 40.1606 -93.8000 91° East 574 661 41,000  Level Kansas City Center
Thu 12:15:34 PM 40.1564 -93.5933 91° East 572 658 41,000  Level Kansas City Center
Thu 12:16:36 PM 40.1661 -93.3900 86° East 572 658 41,000  Level Kansas City Center
Thu 12:17:38 PM 40.1861 -93.1875 83° East 571 657 41,000  Level Kansas City Center
Thu 12:18:40 PM 40.2047 -92.9600 84° East 566 651 41,000 -48 Level Kansas City Center
Thu 12:19:42 PM 40.2247 -92.7336 83° East 563 648 40,900 -435 Descending Kansas City Center
Thu 12:20:44 PM 40.2394 -92.5417 84° East 559 643 40,100 -919 Descending Kansas City Center
Thu 12:21:46 PM 40.2594 -92.3236 83° East 555 639 39,000 -532 Descending Kansas City Center
Thu 12:22:48 PM 40.2744 -92.1206 84° East 565 650 39,000 -242 Level Kansas City Center
Thu 12:23:50 PM 40.2892 -91.9228 84° East 556 640 38,500 -726 Descending Kansas City Center
Thu 12:24:52 PM 40.3033 -91.7233 85° East 555 639 37,500 -726 Descending Kansas City Center
Thu 12:25:54 PM 40.3189 -91.5236 84° East 555 639 37,000 -387 Descending Kansas City Center
Thu 12:26:56 PM 40.3347 -91.2847 85° East 555 639 36,700 -1,355 Descending Kansas City Center
Thu 12:27:58 PM 40.3478 -91.0894 85° East 550 633 34,200 -2,544 Descending Kansas City Center
Thu 12:29:01 PM 40.3614 -90.9025 84° East 534 615 31,400 -2,723 Descending Kansas City Center
Thu 12:29:57 PM 40.3750 -90.7161 84° East 518 596 28,800 -2,644 Descending Chicago Center
Thu 12:30:59 PM 40.3869 -90.5247 85° East 526 605 26,200 -2,565 Descending Chicago Center
Thu 12:32:01 PM 40.3989 -90.3361 85° East 524 603 23,500 -2,371 Descending Chicago Center
Thu 12:33:03 PM 40.4086 -90.1606 86° East 497 572 21,300 -2,256 Descending Chicago Center
Thu 12:34:06 PM 40.4208 -89.9553 85° East 479 551 18,800 -2,112 Descending Chicago Center
Thu 12:35:08 PM 40.4306 -89.7869 86° East 473 544 16,900 -2,112 Descending Chicago Center
Thu 12:36:11 PM 40.4392 -89.6311 86° East 438 504 14,400 -1,887 Descending Chicago Center
Thu 12:37:12 PM 40.4483 -89.4767 85° East 431 496 13,000 -683 Descending Chicago Center
Thu 12:38:14 PM 40.4561 -89.3242 86° East 425 489 13,000 -823 Level Chicago Center
Thu 12:39:16 PM 40.4661 -89.1439 86° East 421 484 11,300 -1,452 Descending Chicago Center
Thu 12:40:18 PM 40.5133 -89.0514 56° Northeast 360 414 10,000 -1,065 Descending Chicago Center
Thu 12:41:20 PM 40.5831 -89.0108 24° Northeast 292 336 9,100 -1,790 Descending Chicago Center
Thu 12:42:22 PM 40.6456 -88.9731 25° Northeast 260 299 6,300 -2,323 Descending Chicago Center
Thu 12:43:24 PM 40.6525 -88.8853 84° East 272 313 4,300 -1,500 Descending Chicago Center
Thu 12:44:26 PM 40.5869 -88.8619 165° South 229 264 3,200 -968 Descending Chicago Center
Thu 12:45:28 PM 40.5419 -88.8822 199° South 184 212 2,300 -816 Descending Chicago Center
Thu 12:46:31 PM 40.5094 -88.8956 197° South 154 177 1,500 -762 Descending Chicago Center

Login

Don't have an account? Register now (free) for customized features, flight alerts, and more!